Time;durP1;ratioP1;P1;durP2;ratioP2;P2;SDS_P1;SDS_P2;PMS_P1;PMS_P2;Temp;Humidity;BMP_temperature;BMP_pressure;BME280_temperature;BME280_humidity;BME280_pressure;Samples;Min_cycle;Max_cycle;Signal;HPM_P1;HPM_P2
2023/02/21 02:15:48;;;;;;;15.50;10.02;;;;;14.70;101794.00;;;;5087097;28;20262;-75
2023/02/21 02:18:39;;;;;;;19.20;10.80;;;;;14.70;101792.00;;;;5084363;28;20575;-75
2023/02/21 02:21:38;;;;;;;24.42;11.73;;;;;14.70;101798.00;;;;5088023;28;20317;-76
2023/02/21 02:24:53;;;;;;;21.83;10.00;;;;;14.70;101793.00;;;;5086536;28;20202;-75
2023/02/21 02:27:50;;;;;;;19.83;11.05;;;;;14.60;101786.00;;;;5085800;28;20198;-75
2023/02/21 02:30:43;;;;;;;15.30;9.85;;;;;14.60;101779.00;;;;5091198;28;20206;-75
2023/02/21 02:33:49;;;;;;;16.85;10.40;;;;;14.60;101785.00;;;;5091430;28;20225;-75
2023/02/21 02:36:24;;;;;;;23.42;12.13;;;;;14.70;101791.00;;;;5090722;28;20201;-75
2023/02/21 02:38:59;;;;;;;21.30;12.98;;;;;14.70;101784.00;;;;5089834;28;20205;-75
2023/02/21 02:41:36;;;;;;;19.77;12.15;;;;;14.70;101792.00;;;;5083360;28;20194;-75
2023/02/21 02:44:12;;;;;;;19.38;11.27;;;;;14.70;101786.00;;;;5085772;28;20242;-75
2023/02/21 02:46:43;;;;;;;19.30;10.63;;;;;14.70;101789.00;;;;5088900;28;20221;-76
2023/02/21 02:49:16;;;;;;;17.88;11.10;;;;;14.70;101796.00;;;;5088855;28;20201;-76
2023/02/21 02:51:45;;;;;;;22.55;11.93;;;;;14.70;101792.00;;;;5089099;28;20222;-75
2023/02/21 02:54:13;;;;;;;18.30;10.82;;;;;14.80;101790.00;;;;5086180;28;20202;-76
2023/02/21 02:56:40;;;;;;;16.98;10.50;;;;;14.70;101786.00;;;;5086602;28;20619;-75
2023/02/21 02:59:10;;;;;;;23.98;12.38;;;;;14.70;101783.00;;;;5089934;28;20202;-75
2023/02/21 03:02:00;;;;;;;18.63;10.38;;;;;14.70;101783.00;;;;5091190;28;20198;-75
2023/02/21 03:04:43;;;;;;;16.35;9.30;;;;;14.70;101782.00;;;;5089247;28;20206;-76
2023/02/21 03:07:20;;;;;;;19.17;11.18;;;;;14.70;101779.00;;;;5089615;28;20194;-75
2023/02/21 03:09:55;;;;;;;15.35;9.30;;;;;14.70;101782.00;;;;5090579;28;20210;-75
2023/02/21 03:12:34;;;;;;;20.35;11.45;;;;;14.60;101778.00;;;;5089723;28;20214;-76
2023/02/21 03:15:07;;;;;;;18.45;10.90;;;;;14.70;101778.00;;;;5087771;28;20198;-75
2023/02/21 03:17:40;;;;;;;18.85;9.80;;;;;14.70;101768.00;;;;5089636;28;20199;-75
2023/02/21 03:20:10;;;;;;;17.27;10.98;;;;;14.70;101773.00;;;;5087742;28;20248;-75
2023/02/21 03:22:43;;;;;;;19.10;11.80;;;;;14.70;101768.00;;;;5090222;28;20199;-75
2023/02/21 03:25:13;;;;;;;17.88;10.55;;;;;14.70;101770.00;;;;5092005;28;20548;-76
2023/02/21 03:27:43;;;;;;;20.50;11.55;;;;;14.70;101772.00;;;;5087174;28;20199;-76
2023/02/21 03:30:12;;;;;;;23.00;12.75;;;;;14.70;101770.00;;;;5086873;28;20206;-76
2023/02/21 03:32:43;;;;;;;22.10;12.88;;;;;14.70;101767.00;;;;5087687;28;20233;-76
2023/02/21 03:35:10;;;;;;;21.00;11.15;;;;;14.70;101773.00;;;;5080744;28;20190;-76
2023/02/21 03:37:42;;;;;;;21.08;11.55;;;;;14.70;101770.00;;;;5090249;28;20209;-76
2023/02/21 03:40:13;;;;;;;20.95;12.02;;;;;14.70;101769.00;;;;5090295;28;20190;-76
2023/02/21 03:42:40;;;;;;;22.27;11.98;;;;;14.70;101778.00;;;;5089796;28;20205;-76
2023/02/21 03:45:08;;;;;;;20.65;12.32;;;;;14.70;101779.00;;;;5090444;28;20601;-76
2023/02/21 03:47:36;;;;;;;23.48;11.95;;;;;14.70;101775.00;;;;5090470;28;20230;-76
2023/02/21 03:50:04;;;;;;;23.50;13.35;;;;;14.70;101771.00;;;;5089470;28;20195;-76
2023/02/21 03:52:31;;;;;;;25.35;12.93;;;;;14.70;101771.00;;;;5088147;28;20229;-76
2023/02/21 03:55:00;;;;;;;22.95;13.02;;;;;14.70;101771.00;;;;5089773;28;20210;-76
2023/02/21 03:57:27;;;;;;;21.08;12.75;;;;;14.70;101767.00;;;;5078765;28;20202;-76
2023/02/21 03:59:55;;;;;;;21.75;12.90;;;;;14.70;101765.00;;;;5085411;28;20551;-76
2023/02/21 04:02:22;;;;;;;23.50;13.10;;;;;14.70;101765.00;;;;5086474;28;20298;-76
2023/02/21 04:04:49;;;;;;;22.92;12.77;;;;;14.70;101769.00;;;;5088337;28;20202;-76
2023/02/21 04:07:18;;;;;;;26.60;14.23;;;;;14.70;101770.00;;;;5088695;28;20190;-76
2023/02/21 04:09:47;;;;;;;22.67;13.65;;;;;14.70;101758.00;;;;5089062;28;20229;-76
2023/02/21 04:12:15;;;;;;;23.67;13.75;;;;;14.70;101764.00;;;;5088598;28;20225;-76
2023/02/21 04:14:43;;;;;;;25.98;13.63;;;;;14.70;101765.00;;;;5089379;28;20197;-76
2023/02/21 04:17:10;;;;;;;20.75;12.57;;;;;14.70;101777.00;;;;5088531;28;20195;-76
2023/02/21 04:19:37;;;;;;;25.30;13.23;;;;;14.70;101771.00;;;;5088374;28;20202;-76
2023/02/21 04:22:05;;;;;;;25.88;13.57;;;;;14.70;101770.00;;;;5090595;28;20182;-76
2023/02/21 04:24:32;;;;;;;20.67;12.32;;;;;14.70;101766.00;;;;5082049;28;20197;-76
2023/02/21 04:27:01;;;;;;;21.13;12.63;;;;;14.70;101766.00;;;;5089613;28;20194;-76
2023/02/21 04:29:29;;;;;;;26.08;13.02;;;;;14.70;101762.00;;;;5087880;28;20290;-76
2023/02/21 04:31:56;;;;;;;20.48;12.65;;;;;14.70;101758.00;;;;5089073;28;20222;-76
2023/02/21 04:34:24;;;;;;;19.17;11.40;;;;;14.70;101749.00;;;;5088083;28;20663;-76
2023/02/21 04:36:51;;;;;;;21.95;12.95;;;;;14.70;101760.00;;;;5088345;28;20195;-76
2023/02/21 04:39:19;;;;;;;21.48;12.48;;;;;14.70;101752.00;;;;5088989;28;20198;-76
2023/02/21 04:41:46;;;;;;;26.88;14.98;;;;;14.70;101754.00;;;;5088385;28;20203;-76
2023/02/21 04:44:15;;;;;;;21.23;12.85;;;;;14.70;101742.00;;;;5088128;28;20194;-76
2023/02/21 04:46:44;;;;;;;26.23;12.60;;;;;14.70;101745.00;;;;5088180;28;20699;-76
2023/02/21 04:49:12;;;;;;;23.15;12.93;;;;;14.70;101735.00;;;;5088587;28;20571;-76
2023/02/21 04:51:40;;;;;;;25.98;13.57;;;;;14.70;101736.00;;;;5088020;28;20199;-76
2023/02/21 04:54:08;;;;;;;24.58;13.38;;;;;14.70;101734.00;;;;5086548;28;20197;-76
2023/02/21 04:56:36;;;;;;;21.85;12.18;;;;;14.60;101731.00;;;;5089415;28;20198;-76
2023/02/21 04:59:03;;;;;;;22.92;12.52;;;;;14.60;101728.00;;;;5078367;28;21114;-76
2023/02/21 05:01:31;;;;;;;23.58;12.75;;;;;14.60;101731.00;;;;5083500;28;20214;-76
2023/02/21 05:04:01;;;;;;;22.42;12.88;;;;;14.60;101739.00;;;;5085879;28;20198;-76
2023/02/21 05:06:31;;;;;;;22.00;12.48;;;;;14.60;101728.00;;;;5086394;28;20202;-76
2023/02/21 05:08:59;;;;;;;24.55;13.05;;;;;14.70;101721.00;;;;5087020;28;20244;-77
2023/02/21 05:11:27;;;;;;;26.10;12.70;;;;;14.70;101724.00;;;;5086846;28;20186;-76
2023/02/21 05:13:54;;;;;;;21.80;12.93;;;;;14.70;101737.00;;;;5080340;28;20234;-76
2023/02/21 05:16:22;;;;;;;24.35;12.90;;;;;14.70;101750.00;;;;5088227;28;20202;-76
2023/02/21 05:18:49;;;;;;;25.88;12.82;;;;;14.70;101749.00;;;;5088232;28;20202;-76
2023/02/21 05:21:19;;;;;;;21.90;12.57;;;;;14.70;101748.00;;;;5088362;28;20194;-76
2023/02/21 05:23:55;;;;;;;21.73;12.98;;;;;14.70;101739.00;;;;5087938;28;20562;-76
2023/02/21 05:26:24;;;;;;;22.98;12.82;;;;;14.70;101744.00;;;;5068634;28;20189;-77
2023/02/21 05:28:52;;;;;;;21.45;12.27;;;;;14.70;101749.00;;;;5075465;28;20190;-77
2023/02/21 05:31:20;;;;;;;23.38;12.60;;;;;14.70;101754.00;;;;5088506;28;20206;-77
2023/02/21 05:33:47;;;;;;;22.67;13.00;;;;;14.70;101754.00;;;;5086744;28;20229;-77
2023/02/21 05:36:16;;;;;;;22.45;12.57;;;;;14.70;101763.00;;;;5087550;28;20198;-77
2023/02/21 05:38:50;;;;;;;23.55;13.27;;;;;14.70;101758.00;;;;5081946;28;20190;-77
2023/02/21 05:41:19;;;;;;;22.73;12.90;;;;;14.80;101757.00;;;;5078233;28;20204;-77
2023/02/21 05:43:47;;;;;;;24.88;13.57;;;;;14.80;101757.00;;;;5084579;28;20190;-77
2023/02/21 05:46:24;;;;;;;22.65;13.43;;;;;14.70;101747.00;;;;5086483;28;20218;-77
2023/02/21 05:48:52;;;;;;;27.90;13.50;;;;;14.80;101749.00;;;;5087670;28;20193;-77
2023/02/21 05:51:20;;;;;;;23.15;13.95;;;;;14.80;101757.00;;;;5088449;28;20198;-77
2023/02/21 05:53:49;;;;;;;21.80;12.98;;;;;14.70;101755.00;;;;5085881;28;20233;-77
2023/02/21 05:56:17;;;;;;;28.75;13.88;;;;;14.80;101768.00;;;;5086927;28;20209;-76
2023/02/21 05:58:44;;;;;;;25.48;13.80;;;;;14.80;101763.00;;;;5086890;28;20198;-77
2023/02/21 06:01:12;;;;;;;24.45;13.48;;;;;14.70;101756.00;;;;5085327;28;20585;-77
2023/02/21 06:03:39;;;;;;;25.17;13.68;;;;;14.70;101751.00;;;;5086102;28;20567;-77
2023/02/21 06:06:07;;;;;;;27.65;14.25;;;;;14.80;101759.00;;;;5084583;28;20194;-77
2023/02/21 06:08:43;;;;;;;29.30;13.90;;;;;14.70;101763.00;;;;5084159;28;20218;-77
2023/02/21 06:11:13;;;;;;;27.05;14.05;;;;;14.70;101773.00;;;;5086919;28;21082;-77
2023/02/21 06:13:40;;;;;;;30.95;14.25;;;;;14.80;101769.00;;;;5087158;28;20225;-77
2023/02/21 06:16:08;;;;;;;24.20;13.40;;;;;14.80;101762.00;;;;5086106;28;20190;-77
2023/02/21 06:18:35;;;;;;;27.08;14.00;;;;;14.80;101755.00;;;;5085293;28;20579;-77
2023/02/21 06:21:02;;;;;;;28.15;14.70;;;;;14.80;101747.00;;;;5086252;28;20190;-78
2023/02/21 06:23:30;;;;;;;27.30;14.48;;;;;14.80;101753.00;;;;5087762;28;20194;-75
2023/02/21 06:25:57;;;;;;;28.40;15.35;;;;;14.80;101765.00;;;;5086581;28;20203;-78
2023/02/21 06:28:29;;;;;;;52.17;25.13;;;;;14.80;101773.00;;;;5085588;28;20463;-78
2023/02/21 06:30:58;;;;;;;36.60;18.50;;;;;15.00;101772.00;;;;5083041;28;20198;-78
2023/02/21 06:33:26;;;;;;;32.80;17.15;;;;;15.00;101770.00;;;;5086948;28;20222;-77
2023/02/21 06:35:53;;;;;;;30.02;14.57;;;;;15.00;101775.00;;;;5085499;28;20199;-76
2023/02/21 06:38:20;;;;;;;32.72;15.73;;;;;15.00;101760.00;;;;5083870;28;20209;-74
2023/02/21 06:40:48;;;;;;;31.05;14.90;;;;;15.00;101768.00;;;;5084119;28;20574;-74
2023/02/21 06:43:15;;;;;;;35.38;15.90;;;;;15.00;101770.00;;;;5085304;28;20675;-74
2023/02/21 06:45:44;;;;;;;28.55;14.40;;;;;15.00;101782.00;;;;5085236;28;20202;-75
2023/02/21 06:48:17;;;;;;;28.27;15.25;;;;;15.00;101784.00;;;;5085192;28;20615;-75
2023/02/21 06:50:45;;;;;;;31.88;15.45;;;;;15.00;101780.00;;;;5085020;28;20214;-76
2023/02/21 06:53:12;;;;;;;32.00;15.45;;;;;15.00;101777.00;;;;5084882;28;20595;-76
2023/02/21 06:55:39;;;;;;;33.08;15.60;;;;;15.00;101780.00;;;;5082815;28;20202;-76
2023/02/21 06:58:07;;;;;;;28.23;15.30;;;;;15.00;101781.00;;;;5085726;28;20676;-76
2023/02/21 07:00:34;;;;;;;30.23;16.48;;;;;15.00;101781.00;;;;5085273;28;20716;-76
2023/02/21 07:03:03;;;;;;;31.83;16.20;;;;;15.00;101778.00;;;;5087646;28;20195;-76
2023/02/21 07:05:33;;;;;;;33.78;16.05;;;;;15.00;101772.00;;;;5084711;28;20683;-76
2023/02/21 07:08:00;;;;;;;34.85;16.80;;;;;15.00;101776.00;;;;5087614;28;20212;-76
2023/02/21 07:10:28;;;;;;;37.75;16.67;;;;;15.00;101781.00;;;;5085797;28;20691;-76
2023/02/21 07:12:55;;;;;;;35.53;16.83;;;;;15.00;101785.00;;;;5084504;28;20271;-76
2023/02/21 07:15:23;;;;;;;33.50;16.33;;;;;15.00;101784.00;;;;5086826;28;20202;-76
2023/02/21 07:17:50;;;;;;;33.15;17.00;;;;;15.00;101780.00;;;;5090005;28;20575;-76
2023/02/21 07:20:19;;;;;;;32.72;17.08;;;;;15.10;101781.00;;;;5090268;28;20201;-76
2023/02/21 07:22:46;;;;;;;32.35;15.02;;;;;15.10;101780.00;;;;5087420;28;20793;-76
2023/02/21 07:25:16;;;;;;;35.40;16.85;;;;;15.00;101780.00;;;;5090727;28;20664;-77
2023/02/21 07:27:43;;;;;;;32.17;15.43;;;;;15.10;101780.00;;;;5090206;28;20198;-76
2023/02/21 07:30:11;;;;;;;35.25;17.05;;;;;15.10;101772.00;;;;5089992;28;20217;-76
2023/02/21 07:32:38;;;;;;;33.55;18.52;;;;;15.10;101766.00;;;;5088572;28;20229;-76
2023/02/21 07:35:07;;;;;;;31.75;15.85;;;;;15.00;101770.00;;;;5090644;28;21226;-76
2023/02/21 07:37:35;;;;;;;35.60;16.60;;;;;15.00;101781.00;;;;5090435;28;20209;-76
2023/02/21 07:40:03;;;;;;;32.92;16.95;;;;;15.00;101784.00;;;;5090586;28;20194;-76
2023/02/21 07:42:30;;;;;;;35.08;17.98;;;;;15.10;101783.00;;;;5087458;28;20229;-76
2023/02/21 07:44:58;;;;;;;32.42;16.05;;;;;15.10;101780.00;;;;5089716;28;20203;-76
2023/02/21 07:47:26;;;;;;;35.25;17.38;;;;;15.10;101782.00;;;;5086998;28;20225;-77
2023/02/21 07:49:53;;;;;;;36.95;17.65;;;;;15.10;101788.00;;;;5087237;28;20201;-76
2023/02/21 07:52:21;;;;;;;32.78;17.17;;;;;15.10;101788.00;;;;5089232;28;20637;-76
2023/02/21 07:54:50;;;;;;;34.42;16.67;;;;;15.10;101786.00;;;;5088056;28;20218;-76
2023/02/21 07:57:17;;;;;;;33.70;16.05;;;;;15.10;101795.00;;;;5088893;28;20656;-76
2023/02/21 07:59:45;;;;;;;33.40;15.52;;;;;15.10;101799.00;;;;5089237;28;20684;-76
2023/02/21 08:02:12;;;;;;;34.83;18.42;;;;;15.10;101799.00;;;;5088797;28;20674;-76
2023/02/21 08:04:40;;;;;;;38.25;18.70;;;;;15.10;101795.00;;;;5089525;28;20865;-76
2023/02/21 08:07:08;;;;;;;33.90;15.63;;;;;15.10;101792.00;;;;5087275;28;20206;-76
2023/02/21 08:09:37;;;;;;;35.50;18.35;;;;;15.10;101788.00;;;;5088139;28;20218;-76
2023/02/21 08:12:06;;;;;;;31.35;16.52;;;;;15.10;101796.00;;;;5085923;28;20209;-76
2023/02/21 08:14:33;;;;;;;34.97;15.80;;;;;15.10;101800.00;;;;5089546;28;20312;-76
2023/02/21 08:17:00;;;;;;;33.58;15.32;;;;;15.20;101803.00;;;;5085953;28;20655;-76
2023/02/21 08:19:28;;;;;;;30.25;15.52;;;;;15.10;101800.00;;;;5084550;28;20543;-76
2023/02/21 08:21:55;;;;;;;30.58;15.40;;;;;15.10;101793.00;;;;5087508;28;20687;-76
2023/02/21 08:24:22;;;;;;;30.38;14.30;;;;;15.10;101789.00;;;;5087522;28;20198;-76
2023/02/21 08:26:49;;;;;;;30.38;15.13;;;;;15.10;101796.00;;;;5088885;28;20198;-76
2023/02/21 08:29:18;;;;;;;27.17;14.38;;;;;15.10;101787.00;;;;5085692;28;20191;-76
2023/02/21 08:31:46;;;;;;;25.73;14.27;;;;;15.20;101788.00;;;;5086030;28;20206;-76
2023/02/21 08:34:13;;;;;;;30.33;14.68;;;;;15.20;101787.00;;;;5084595;28;20699;-76
2023/02/21 08:36:43;;;;;;;25.85;13.43;;;;;15.10;101781.00;;;;5085825;28;20210;-76
2023/02/21 08:39:11;;;;;;;26.83;13.52;;;;;15.20;101781.00;;;;5086024;28;20659;-77
2023/02/21 08:41:39;;;;;;;25.67;13.20;;;;;15.20;101784.00;;;;5084034;28;20202;-77
2023/02/21 08:44:07;;;;;;;24.55;12.10;;;;;15.20;101781.00;;;;5087517;28;20201;-77
2023/02/21 08:46:38;;;;;;;25.88;13.00;;;;;15.20;101785.00;;;;5084950;28;20229;-76
2023/02/21 08:49:05;;;;;;;23.02;12.77;;;;;15.20;101784.00;;;;5085351;28;20214;-76
2023/02/21 08:51:34;;;;;;;25.92;13.38;;;;;15.20;101783.00;;;;5088869;28;20591;-76
2023/02/21 08:54:02;;;;;;;26.73;13.35;;;;;15.30;101780.00;;;;5089468;28;20226;-76
2023/02/21 08:56:30;;;;;;;25.95;13.07;;;;;15.30;101783.00;;;;5088560;28;20244;-77
2023/02/21 08:58:58;;;;;;;26.88;13.75;;;;;15.30;101782.00;;;;5085151;28;20452;-77
2023/02/21 09:01:31;;;;;;;21.83;12.90;;;;;15.30;101793.00;;;;5086064;28;20198;-77
2023/02/21 09:03:59;;;;;;;19.85;11.98;;;;;15.30;101788.00;;;;5088511;28;20198;-76
2023/02/21 09:06:27;;;;;;;25.00;13.35;;;;;15.30;101789.00;;;;5088899;28;20206;-76
2023/02/21 09:08:54;;;;;;;22.63;11.30;;;;;15.30;101781.00;;;;5084641;28;20503;-76
2023/02/21 09:11:22;;;;;;;21.45;12.23;;;;;15.40;101781.00;;;;5086718;28;20251;-76
2023/02/21 09:13:49;;;;;;;25.38;12.10;;;;;15.40;101775.00;;;;5086518;28;20222;-76
2023/02/21 09:16:16;;;;;;;22.13;12.27;;;;;15.40;101772.00;;;;5088019;28;20198;-76
2023/02/21 09:18:44;;;;;;;21.15;12.27;;;;;15.40;101772.00;;;;5082594;28;20545;-76
2023/02/21 09:21:12;;;;;;;21.88;10.57;;;;;15.40;101771.00;;;;5088037;28;20679;-76
2023/02/21 09:23:39;;;;;;;21.73;12.35;;;;;15.40;101767.00;;;;5082548;28;20570;-76
2023/02/21 09:26:07;;;;;;;24.05;11.70;;;;;15.40;101768.00;;;;5085367;28;20186;-76
2023/02/21 09:28:34;;;;;;;25.23;12.02;;;;;15.40;101761.00;;;;5085036;28;20198;-76
2023/02/21 09:31:01;;;;;;;21.52;11.85;;;;;15.40;101762.00;;;;5081708;28;20202;-76
2023/02/21 09:33:29;;;;;;;22.90;12.68;;;;;15.40;101758.00;;;;5085211;28;20223;-76
2023/02/21 09:35:57;;;;;;;22.48;11.50;;;;;15.40;101750.00;;;;5087951;28;20209;-76
2023/02/21 09:38:25;;;;;;;25.17;12.48;;;;;15.40;101755.00;;;;5088085;28;20197;-76
2023/02/21 09:40:58;;;;;;;23.95;13.00;;;;;15.40;101756.00;;;;5084684;28;20190;-76
2023/02/21 09:43:31;;;;;;;20.73;12.43;;;;;15.40;101748.00;;;;5086693;28;20198;-76
2023/02/21 09:46:03;;;;;;;22.45;12.60;;;;;15.50;101750.00;;;;5085190;28;20233;-75
2023/02/21 09:48:30;;;;;;;23.90;13.15;;;;;15.50;101749.00;;;;5086828;28;20206;-76
2023/02/21 09:51:00;;;;;;;24.70;12.60;;;;;15.50;101745.00;;;;5085818;28;20190;-76
2023/02/21 09:53:33;;;;;;;24.00;12.93;;;;;15.50;101743.00;;;;5082242;28;20198;-76
2023/02/21 09:56:05;;;;;;;25.45;13.98;;;;;15.50;101743.00;;;;5085025;28;20264;-76
2023/02/21 09:58:32;;;;;;;23.42;12.65;;;;;15.50;101747.00;;;;5085861;28;20194;-76
2023/02/21 10:01:04;;;;;;;23.83;12.32;;;;;15.50;101739.00;;;;5088266;28;20208;-77
2023/02/21 10:03:43;;;;;;;27.58;13.00;;;;;15.40;101748.00;;;;5084378;28;20198;-77
2023/02/21 10:06:20;;;;;;;24.55;13.68;;;;;15.50;101744.00;;;;5084474;28;20190;-77
2023/02/21 10:08:56;;;;;;;29.17;13.65;;;;;15.50;101736.00;;;;5084898;28;20222;-77
2023/02/21 10:11:37;;;;;;;26.95;13.07;;;;;15.50;101740.00;;;;5087768;28;20194;-77
2023/02/21 10:14:19;;;;;;;26.98;14.00;;;;;15.40;101741.00;;;;5084645;28;20222;-74
2023/02/21 10:16:53;;;;;;;24.42;13.80;;;;;15.50;101749.00;;;;5083774;28;20205;-74
2023/02/21 10:19:30;;;;;;;23.42;12.68;;;;;15.50;101743.00;;;;5086622;28;20214;-74
2023/02/21 10:21:59;;;;;;;26.50;13.45;;;;;15.60;101744.00;;;;5083207;28;20642;-75
2023/02/21 10:24:28;;;;;;;28.65;12.70;;;;;15.50;101741.00;;;;5084774;28;20195;-74
2023/02/21 10:27:02;;;;;;;22.58;12.65;;;;;15.50;101751.00;;;;5083796;28;20198;-75
2023/02/21 10:29:37;;;;;;;27.00;13.38;;;;;15.50;101751.00;;;;5084793;28;20205;-75
2023/02/21 10:32:05;;;;;;;28.55;13.95;;;;;15.60;101744.00;;;;5075520;28;20202;-76
2023/02/21 10:34:34;;;;;;;25.25;13.80;;;;;15.50;101748.00;;;;5086266;28;20261;-75
2023/02/21 10:37:13;;;;;;;28.60;15.25;;;;;15.50;101746.00;;;;5087505;28;20746;-75
2023/02/21 10:39:46;;;;;;;28.55;14.05;;;;;15.50;101740.00;;;;5086883;28;20190;-75
2023/02/21 10:42:25;;;;;;;31.10;15.10;;;;;15.50;101750.00;;;;5083728;28;20194;-75
2023/02/21 10:44:53;;;;;;;29.90;13.93;;;;;15.60;101745.00;;;;5086029;28;20202;-75
2023/02/21 10:47:26;;;;;;;34.55;16.35;;;;;15.50;101746.00;;;;5078032;28;20247;-76
2023/02/21 10:50:00;;;;;;;30.55;15.85;;;;;15.50;101751.00;;;;5082935;28;20597;-75
2023/02/21 10:52:27;;;;;;;32.20;15.20;;;;;15.60;101746.00;;;;5088138;28;20198;-76
2023/02/21 10:55:07;;;;;;;30.15;15.10;;;;;15.50;101747.00;;;;5090998;28;20222;-76
2023/02/21 10:57:41;;;;;;;32.25;15.55;;;;;15.50;101744.00;;;;5085734;28;20252;-76
2023/02/21 11:00:09;;;;;;;28.25;14.93;;;;;15.60;101747.00;;;;5087450;28;20217;-76
2023/02/21 11:02:39;;;;;;;29.23;14.57;;;;;15.60;101742.00;;;;5088366;28;20197;-75
2023/02/21 11:05:14;;;;;;;32.20;16.13;;;;;15.60;101744.00;;;;5088408;28;20202;-75
2023/02/21 11:07:42;;;;;;;31.40;15.57;;;;;15.60;101737.00;;;;5090981;28;20198;-75
2023/02/21 11:10:29;;;;;;;33.08;15.82;;;;;15.50;101746.00;;;;5090594;28;20260;-75
2023/02/21 11:13:04;;;;;;;27.13;13.50;;;;;15.60;101737.00;;;;5089404;28;20205;-75
2023/02/21 11:15:32;;;;;;;28.40;13.93;;;;;15.70;101741.00;;;;5090677;28;20225;-76
2023/02/21 11:18:12;;;;;;;33.20;17.10;;;;;15.60;101737.00;;;;5089399;28;20576;-76
2023/02/21 11:20:40;;;;;;;29.55;15.15;;;;;15.70;101739.00;;;;5087059;28;20198;-75
2023/02/21 11:23:20;;;;;;;30.02;14.55;;;;;15.60;101737.00;;;;5091687;28;20202;-75
2023/02/21 11:25:51;;;;;;;29.55;14.20;;;;;15.70;101730.00;;;;5086477;28;20194;-75
2023/02/21 11:28:21;;;;;;;28.20;13.27;;;;;15.70;101725.00;;;;5091056;28;20658;-75
2023/02/21 11:31:03;;;;;;;28.95;12.98;;;;;15.70;101735.00;;;;5080377;28;20199;-75
2023/02/21 11:33:32;;;;;;;24.33;12.68;;;;;15.80;101732.00;;;;5090772;28;20580;-76
2023/02/21 11:36:10;;;;;;;32.90;14.68;;;;;15.70;101732.00;;;;5088271;28;20280;-75
2023/02/21 11:38:42;;;;;;;25.45;12.30;;;;;15.80;101731.00;;;;5086779;28;20695;-75
2023/02/21 11:41:22;;;;;;;29.15;13.45;;;;;15.70;101732.00;;;;5082987;28;20199;-76
2023/02/21 11:43:49;;;;;;;27.98;12.98;;;;;15.80;101721.00;;;;5087059;28;20190;-75
2023/02/21 11:46:32;;;;;;;26.38;13.60;;;;;15.70;101726.00;;;;5089029;28;20229;-76
2023/02/21 11:49:04;;;;;;;24.40;12.02;;;;;15.80;101724.00;;;;5088237;28;20201;-76
2023/02/21 11:51:38;;;;;;;21.83;11.48;;;;;15.80;101722.00;;;;5087668;28;20201;-76
2023/02/21 11:54:06;;;;;;;20.85;10.65;;;;;15.80;101736.00;;;;5087721;28;20198;-76
2023/02/21 11:56:50;;;;;;;23.92;12.02;;;;;15.70;101730.00;;;;5088538;28;20229;-75
2023/02/21 11:59:29;;;;;;;22.05;11.02;;;;;15.80;101721.00;;;;5087176;28;20191;-76
2023/02/21 12:02:17;;;;;;;16.98;9.20;;;;;15.70;101721.00;;;;5084233;28;20251;-76
2023/02/21 12:04:59;;;;;;;15.45;8.40;;;;;15.70;101714.00;;;;5087866;28;20190;-76
2023/02/21 12:07:37;;;;;;;15.20;8.52;;;;;15.70;101713.00;;;;5090583;28;20194;-76
2023/02/21 12:10:20;;;;;;;14.20;7.68;;;;;15.70;101714.00;;;;5089439;28;20218;-76
2023/02/21 12:12:56;;;;;;;12.05;6.32;;;;;15.70;101709.00;;;;5081719;28;20197;-76
2023/02/21 12:15:26;;;;;;;10.18;5.93;;;;;15.80;101718.00;;;;5089062;28;20230;-76
2023/02/21 12:18:17;;;;;;;12.38;6.70;;;;;15.70;101709.00;;;;5088437;28;20198;-76
2023/02/21 12:21:03;;;;;;;9.98;5.65;;;;;15.70;101714.00;;;;5089022;28;20225;-76
2023/02/21 12:23:41;;;;;;;9.60;5.65;;;;;15.70;101705.00;;;;5087219;28;20198;-76
2023/02/21 12:26:21;;;;;;;11.50;6.35;;;;;15.80;101698.00;;;;5088213;28;20198;-76
2023/02/21 12:29:01;;;;;;;9.48;5.68;;;;;15.80;101705.00;;;;5078023;28;20194;-76
2023/02/21 12:31:41;;;;;;;7.63;4.97;;;;;15.80;101700.00;;;;5088955;28;20210;-75
2023/02/21 12:34:22;;;;;;;8.32;5.35;;;;;15.80;101697.00;;;;5078044;28;20201;-76
2023/02/21 12:37:04;;;;;;;8.90;5.75;;;;;15.70;101698.00;;;;5084357;28;20194;-76
2023/02/21 12:39:47;;;;;;;9.43;5.45;;;;;15.80;101695.00;;;;5087151;28;20198;-76
2023/02/21 12:42:38;;;;;;;9.43;5.03;;;;;15.80;101692.00;;;;5089828;28;20200;-76
2023/02/21 12:45:23;;;;;;;9.52;6.25;;;;;15.80;101684.00;;;;5081209;28;20229;-76
2023/02/21 12:47:56;;;;;;;9.98;6.05;;;;;15.80;101683.00;;;;5083652;28;20214;-76
2023/02/21 12:50:28;;;;;;;8.15;4.93;;;;;15.90;101682.00;;;;5085553;28;20194;-76
2023/02/21 12:53:02;;;;;;;8.63;5.63;;;;;15.90;101681.00;;;;5088386;28;20675;-76
2023/02/21 12:55:33;;;;;;;9.55;5.47;;;;;15.90;101681.00;;;;5082048;28;20714;-76
2023/02/21 12:58:06;;;;;;;8.00;5.30;;;;;15.90;101681.00;;;;5087985;28;20257;-76
2023/02/21 13:00:41;;;;;;;9.32;5.18;;;;;15.90;101677.00;;;;5087805;28;20672;-76
2023/02/21 13:03:31;;;;;;;7.82;5.00;;;;;15.80;101672.00;;;;5089829;28;20557;-76
2023/02/21 13:06:02;;;;;;;7.97;4.95;;;;;15.90;101672.00;;;;5085401;28;20258;-76
2023/02/21 13:08:35;;;;;;;8.82;4.45;;;;;15.90;101664.00;;;;5088874;28;20806;-76
2023/02/21 13:11:10;;;;;;;7.75;5.00;;;;;15.90;101673.00;;;;5086109;28;20191;-76
2023/02/21 13:13:37;;;;;;;8.80;5.35;;;;;16.00;101671.00;;;;5087515;28;20200;-76
2023/02/21 13:16:11;;;;;;;7.75;4.85;;;;;16.00;101668.00;;;;5085487;28;20229;-76
2023/02/21 13:18:42;;;;;;;8.25;4.72;;;;;16.00;101662.00;;;;5087135;28;20202;-76
2023/02/21 13:21:21;;;;;;;9.00;5.15;;;;;16.00;101659.00;;;;5086113;28;20205;-76
2023/02/21 13:27:31;;;;;;;9.27;5.28;;;;;16.00;101658.00;;;;5082662;28;20209;-76
2023/02/21 13:30:06;;;;;;;7.20;4.10;;;;;16.00;101660.00;;;;5084088;28;20190;-76
2023/02/21 13:32:40;;;;;;;8.25;5.18;;;;;16.00;101658.00;;;;5085268;28;20782;-76
2023/02/21 13:35:09;;;;;;;10.88;5.18;;;;;16.10;101652.00;;;;5089358;28;20583;-76
2023/02/21 13:37:46;;;;;;;8.45;5.15;;;;;16.00;101646.00;;;;5087002;28;20205;-75
2023/02/21 13:40:22;;;;;;;7.93;5.10;;;;;16.10;101651.00;;;;5085236;28;20211;-76
2023/02/21 13:43:01;;;;;;;8.68;5.22;;;;;16.00;101639.00;;;;5077742;28;20189;-76
2023/02/21 13:45:29;;;;;;;10.70;5.63;;;;;16.10;101642.00;;;;5087640;28;20206;-76
2023/02/21 13:48:24;;;;;;;11.32;6.18;;;;;16.00;101633.00;;;;5086247;28;20226;-76
2023/02/21 13:50:53;;;;;;;7.47;4.88;;;;;16.10;101640.00;;;;5080320;28;20265;-76
2023/02/21 13:53:23;;;;;;;8.18;5.25;;;;;16.10;101646.00;;;;5087723;28;20672;-76
2023/02/21 13:56:17;;;;;;;7.82;5.10;;;;;16.00;101636.00;;;;5084692;28;20236;-76
2023/02/21 13:58:45;;;;;;;7.32;4.82;;;;;16.10;101643.00;;;;5083350;28;20186;-76
2023/02/21 14:01:41;;;;;;;7.35;4.70;;;;;16.00;101639.00;;;;5084631;28;20664;-75
2023/02/21 14:04:48;;;;;;;7.00;4.78;;;;;16.00;101639.00;;;;5083146;28;20190;-76
2023/02/21 14:07:18;;;;;;;6.93;4.68;;;;;16.10;101633.00;;;;5072915;28;20205;-77
2023/02/21 14:09:47;;;;;;;7.40;4.22;;;;;16.10;101640.00;;;;5086533;28;20214;-77
2023/02/21 14:12:16;;;;;;;7.93;5.40;;;;;16.10;101637.00;;;;5085975;28;20211;-76
2023/02/21 14:14:46;;;;;;;8.38;4.68;;;;;16.10;101642.00;;;;5076880;28;20488;-76
2023/02/21 14:17:15;;;;;;;7.10;4.55;;;;;16.10;101633.00;;;;5088432;28;20198;-76
2023/02/21 14:19:47;;;;;;;7.10;4.75;;;;;16.10;101639.00;;;;5086290;28;20202;-76
2023/02/21 14:22:20;;;;;;;7.97;4.55;;;;;16.00;101632.00;;;;5085622;28;20197;-77
2023/02/21 14:24:52;;;;;;;6.97;4.95;;;;;16.00;101633.00;;;;5082266;28;20195;-76
2023/02/21 14:27:38;;;;;;;8.13;5.03;;;;;15.90;101631.00;;;;5083517;28;20660;-76
2023/02/21 14:30:33;;;;;;;8.13;4.57;;;;;15.90;101627.00;;;;5082545;28;20194;-76
2023/02/21 14:33:25;;;;;;;8.45;4.95;;;;;16.00;101633.00;;;;5033245;28;20198;-77
2023/02/21 14:36:02;;;;;;;6.43;4.50;;;;;16.00;101630.00;;;;5079522;28;20226;-75